Time;durP1;ratioP1;P1;durP2;ratioP2;P2;SDS_P1;SDS_P2;PMS_P1;PMS_P2;Temp;Humidity;BMP_temperature;BMP_pressure;BME280_temperature;BME280_humidity;BME280_pressure;Samples;Min_cycle;Max_cycle;Signal;HPM_P1;HPM_P2
2022/07/23 00:01:11;;;;;;;10.77;4.60;;;;;;;18.35;70.53;93420.59;5109286;28;20047;-80
2022/07/23 00:03:38;;;;;;;7.75;4.32;;;;;;;18.46;70.85;93450.81;5109444;28;20043;-81
2022/07/23 00:06:05;;;;;;;6.50;4.03;;;;;;;18.41;71.23;93454.19;5108963;28;20043;-80
2022/07/23 00:08:32;;;;;;;5.97;4.53;;;;;;;18.35;71.74;93451.81;5109328;28;20100;-80
2022/07/23 00:10:59;;;;;;;5.45;3.95;;;;;;;18.35;71.97;93457.00;5109689;28;20117;-80
2022/07/23 00:13:25;;;;;;;6.38;4.35;;;;;;;18.29;72.72;93469.97;5109160;28;20495;-80
2022/07/23 00:15:53;;;;;;;7.38;4.10;;;;;;;18.18;71.70;93455.34;5109129;28;20096;-80
2022/07/23 00:18:20;;;;;;;6.38;4.13;;;;;;;18.13;72.12;93461.31;5109449;28;20491;-80
2022/07/23 00:20:47;;;;;;;9.57;5.18;;;;;;;18.09;72.15;93459.47;5109000;28;20548;-80
2022/07/23 00:23:15;;;;;;;9.43;4.65;;;;;;;17.99;72.89;93462.72;5109447;28;20100;-81
2022/07/23 00:25:41;;;;;;;8.75;4.57;;;;;;;17.96;73.22;93460.66;5109174;28;20047;-81
2022/07/23 00:28:08;;;;;;;7.30;5.15;;;;;;;17.94;73.68;93467.88;5110763;28;20449;-81
2022/07/23 00:30:35;;;;;;;7.45;5.00;;;;;;;17.78;74.33;93441.81;5115240;28;20044;-81
2022/07/23 00:33:05;;;;;;;8.23;5.20;;;;;;;17.74;75.28;93456.31;5109069;28;20479;-81
2022/07/23 00:35:35;;;;;;;9.63;4.78;;;;;;;17.76;75.48;93456.84;5108920;28;20093;-81
2022/07/23 00:38:05;;;;;;;7.20;4.60;;;;;;;17.74;75.55;93448.53;5109279;28;20437;-81
2022/07/23 00:40:32;;;;;;;7.90;4.03;;;;;;;17.78;75.78;93460.00;5109090;28;20460;-82
2022/07/23 00:42:59;;;;;;;7.82;4.93;;;;;;;17.77;76.07;93456.63;5108814;28;20499;-81
2022/07/23 00:45:26;;;;;;;8.25;4.75;;;;;;;17.57;76.22;93431.25;5110698;28;20118;-81
2022/07/23 00:47:53;;;;;;;11.93;5.32;;;;;;;17.62;77.00;93448.69;5109770;28;20101;-81
2022/07/23 00:50:21;;;;;;;6.75;4.75;;;;;;;17.58;77.18;93445.81;5109032;28;20043;-81
2022/07/23 00:52:48;;;;;;;9.75;5.05;;;;;;;17.49;77.60;93429.09;5108914;28;20052;-81
2022/07/23 00:55:15;;;;;;;9.80;4.85;;;;;;;17.54;77.50;93451.75;5109052;28;20048;-81
2022/07/23 00:57:43;;;;;;;8.40;5.05;;;;;;;17.39;77.43;93452.41;5109095;28;20051;-81
2022/07/23 01:00:13;;;;;;;8.27;5.03;;;;;;;17.36;78.23;93446.66;5109244;28;20043;-81
2022/07/23 01:02:40;;;;;;;5.63;4.28;;;;;;;17.42;77.48;93460.47;5108799;28;20042;-80
2022/07/23 01:05:08;;;;;;;7.65;5.03;;;;;;;17.42;77.53;93459.69;5108785;28;20039;-80
2022/07/23 01:07:37;;;;;;;7.80;5.07;;;;;;;17.43;77.01;93459.44;5108760;28;20047;-81
2022/07/23 01:10:04;;;;;;;7.85;4.68;;;;;;;17.46;76.32;93458.94;5109167;28;20039;-80
2022/07/23 01:12:31;;;;;;;6.38;5.28;;;;;;;17.43;75.84;93462.03;5109109;28;20445;-80
2022/07/23 01:14:58;;;;;;;8.27;5.22;;;;;;;17.44;76.05;93460.22;5108794;28;20090;-80
2022/07/23 01:17:25;;;;;;;6.90;4.75;;;;;;;17.44;76.27;93457.63;5108678;28;20048;-80
2022/07/23 01:19:52;;;;;;;9.25;5.28;;;;;;;17.41;77.00;93458.13;5108811;28;20422;-80
2022/07/23 01:22:20;;;;;;;6.43;4.88;;;;;;;17.46;77.13;93460.78;5109169;28;20047;-80
2022/07/23 01:24:48;;;;;;;8.77;5.20;;;;;;;17.47;77.04;93459.75;5108705;28;20044;-81
2022/07/23 01:27:17;;;;;;;8.68;4.63;;;;;;;17.44;76.85;93453.22;5108734;28;20055;-81
2022/07/23 01:29:44;;;;;;;7.63;4.97;;;;;;;17.44;76.99;93461.00;5109067;28;20076;-81
2022/07/23 01:32:10;;;;;;;8.85;4.55;;;;;;;17.28;77.38;93441.91;5111675;28;20097;-81
2022/07/23 01:34:37;;;;;;;7.70;5.38;;;;;;;17.38;77.26;93453.41;5112546;27;20373;-81
2022/07/23 01:37:04;;;;;;;7.15;4.82;;;;;;;17.38;76.85;93453.41;5112374;28;20047;-81
2022/07/23 01:39:31;;;;;;;8.30;5.00;;;;;;;17.30;76.31;93450.25;5112142;28;20035;-81
2022/07/23 01:41:59;;;;;;;9.02;5.22;;;;;;;17.24;75.44;93451.22;5112260;28;20132;-80
2022/07/23 01:44:25;;;;;;;6.75;4.90;;;;;;;17.19;75.63;93449.38;5112522;28;20051;-80
2022/07/23 01:46:52;;;;;;;9.30;4.45;;;;;;;17.13;75.61;93446.97;5114984;27;20048;-80
2022/07/23 01:49:19;;;;;;;11.50;5.05;;;;;;;17.09;75.60;93449.25;5112109;28;20055;-80
2022/07/23 01:54:40;;;;;;;8.73;5.28;;;;;;;16.85;76.79;93440.94;5107119;27;20117;-80
2022/07/23 01:57:07;;;;;;;7.22;4.13;;;;;;;16.67;77.58;93429.84;5086550;28;20056;-80
2022/07/23 01:59:34;;;;;;;7.43;5.35;;;;;;;16.70;77.70;93447.50;5086792;28;20048;-80
2022/07/23 02:02:03;;;;;;;7.53;5.03;;;;;;;16.28;75.90;93392.56;5086498;28;20098;-80
2022/07/23 02:04:30;;;;;;;11.32;5.50;;;;;;;16.66;76.27;93451.63;5086003;28;20080;-80
2022/07/23 02:06:57;;;;;;;6.22;5.18;;;;;;;16.52;77.10;93449.38;5086070;28;20101;-80
2022/07/23 02:09:23;;;;;;;6.72;5.15;;;;;;;16.55;77.89;93455.88;5086472;28;20089;-80
2022/07/23 02:11:51;;;;;;;10.18;5.55;;;;;;;16.53;77.71;93457.94;5086482;28;20454;-80
2022/07/23 02:14:18;;;;;;;9.65;5.15;;;;;;;16.55;78.72;93461.06;5086042;28;20561;-80
2022/07/23 02:16:45;;;;;;;7.30;5.30;;;;;;;16.52;78.38;93458.97;5085782;28;20045;-80
2022/07/23 02:19:11;;;;;;;8.57;4.75;;;;;;;16.47;78.72;93462.28;5086187;28;20101;-80
2022/07/23 02:21:38;;;;;;;8.77;5.90;;;;;;;16.46;79.73;93457.31;5085963;28;20040;-80
2022/07/23 02:24:06;;;;;;;8.93;5.15;;;;;;;16.43;79.30;93445.63;5085959;28;20464;-80
2022/07/23 02:26:34;;;;;;;7.18;5.15;;;;;;;16.52;78.45;93464.94;5086114;28;20042;-80
2022/07/23 02:29:02;;;;;;;9.60;5.88;;;;;;;16.49;79.12;93454.25;5085906;28;20552;-80
2022/07/23 02:31:29;;;;;;;8.93;4.57;;;;;;;16.49;79.08;93454.25;5086214;28;20044;-84
2022/07/23 02:33:56;;;;;;;11.65;5.55;;;;;;;16.37;78.41;93444.00;5086026;28;20044;-81
2022/07/23 02:36:23;;;;;;;8.80;5.22;;;;;;;16.38;78.07;93461.13;5086230;28;20044;-80
2022/07/23 02:38:50;;;;;;;6.72;4.63;;;;;;;16.36;78.79;93457.97;5079786;28;20045;-81
2022/07/23 02:41:16;;;;;;;7.18;4.78;;;;;;;16.32;79.03;93456.88;5083395;28;20056;-80
2022/07/23 02:43:43;;;;;;;8.70;5.60;;;;;;;16.34;78.81;93457.44;5086147;28;20385;-80
2022/07/23 02:46:11;;;;;;;8.75;4.65;;;;;;;16.33;77.69;93458.47;5085858;28;20085;-80
2022/07/23 02:48:38;;;;;;;7.90;5.30;;;;;;;16.37;77.84;93464.72;5086511;28;20082;-80
2022/07/23 02:51:05;;;;;;;8.45;5.15;;;;;;;16.33;78.05;93469.59;5071480;28;20512;-81
2022/07/23 02:53:32;;;;;;;9.90;4.93;;;;;;;16.35;77.47;93470.16;5085769;28;20056;-80
2022/07/23 02:55:58;;;;;;;8.30;4.95;;;;;;;16.29;77.44;93474.50;5086103;28;20094;-80
2022/07/23 02:58:26;;;;;;;12.77;5.55;;;;;;;16.24;78.19;93476.25;5085979;28;20041;-80
2022/07/23 03:00:53;;;;;;;11.00;5.10;;;;;;;16.16;78.56;93472.25;5085715;28;20059;-80
2022/07/23 03:03:21;;;;;;;10.35;5.65;;;;;;;16.07;78.82;93474.44;5085950;28;20036;-79
2022/07/23 03:05:48;;;;;;;8.32;5.35;;;;;;;16.03;78.56;93476.72;5072780;28;20045;-79
2022/07/23 03:08:15;;;;;;;9.90;5.90;;;;;;;16.02;78.84;93475.16;5072347;28;20098;-79
2022/07/23 03:10:41;;;;;;;8.93;5.50;;;;;;;16.07;79.55;93479.63;5072336;28;20048;-78
2022/07/23 03:13:08;;;;;;;8.43;5.40;;;;;;;16.03;79.42;93471.53;5071856;28;20052;-79
2022/07/23 03:15:35;;;;;;;8.43;5.38;;;;;;;15.90;79.27;93477.81;5072170;28;20049;-79
2022/07/23 03:18:02;;;;;;;8.98;5.15;;;;;;;15.87;79.21;93485.25;5072448;28;20040;-79
2022/07/23 03:20:30;;;;;;;10.85;5.78;;;;;;;15.87;79.81;93485.25;5071833;28;20045;-80
2022/07/23 03:22:56;;;;;;;13.80;6.07;;;;;;;15.87;80.10;93487.81;5071845;28;20048;-79
2022/07/23 03:25:23;;;;;;;8.30;5.18;;;;;;;15.90;80.11;93493.34;5072098;28;20040;-79
2022/07/23 03:27:50;;;;;;;9.75;5.22;;;;;;;15.89;80.43;93496.94;5071835;28;20139;-79
2022/07/23 03:30:17;;;;;;;9.55;6.15;;;;;;;15.95;80.52;93495.25;5071819;28;20462;-79
2022/07/23 03:32:44;;;;;;;8.50;5.53;;;;;;;15.99;81.46;93493.78;5071588;28;20049;-79
2022/07/23 03:35:11;;;;;;;16.88;6.40;;;;;;;16.01;82.17;93491.72;5071399;28;20040;-79
2022/07/23 03:37:39;;;;;;;11.68;5.72;;;;;;;16.02;82.23;93500.28;5071558;28;20109;-78
2022/07/23 03:40:07;;;;;;;9.65;5.65;;;;;;;16.06;81.17;93498.78;5071369;28;20102;-79
2022/07/23 03:42:34;;;;;;;14.88;6.20;;;;;;;16.11;81.97;93501.44;5071518;28;20052;-79
2022/07/23 03:45:01;;;;;;;10.25;5.57;;;;;;;16.00;82.28;93484.16;5071435;28;20044;-79
2022/07/23 03:47:28;;;;;;;13.52;6.18;;;;;;;16.12;82.86;93503.00;5070286;28;20524;-79
2022/07/23 03:49:54;;;;;;;13.13;5.95;;;;;;;16.11;83.18;93504.03;5071523;28;20492;-78
2022/07/23 03:52:21;;;;;;;14.00;7.15;;;;;;;16.17;82.90;93502.31;5057169;28;20044;-76
2022/07/23 03:54:49;;;;;;;10.82;5.82;;;;;;;16.20;83.31;93501.81;5071411;28;20048;-78
2022/07/23 03:57:16;;;;;;;10.90;5.72;;;;;;;16.14;82.99;93495.78;5068214;28;20036;-79
2022/07/23 03:59:43;;;;;;;10.80;5.53;;;;;;;16.24;83.63;93502.94;5068048;28;20500;-79
2022/07/23 04:02:09;;;;;;;17.05;7.40;;;;;;;16.31;83.20;93505.38;5067868;28;20044;-79
2022/07/23 04:04:36;;;;;;;11.27;5.80;;;;;;;16.34;82.54;93507.47;5068842;28;20048;-80
2022/07/23 04:07:03;;;;;;;8.20;5.82;;;;;;;16.43;81.23;93505.25;5050972;28;20087;-79
2022/07/23 04:09:30;;;;;;;10.27;5.43;;;;;;;16.48;80.92;93507.16;5050837;28;20048;-79
2022/07/23 04:11:58;;;;;;;8.52;5.28;;;;;;;16.48;81.80;93513.09;5056645;28;20045;-78
2022/07/23 04:14:24;;;;;;;9.57;5.57;;;;;;;16.50;82.36;93502.50;5070762;28;20094;-78
2022/07/23 04:16:51;;;;;;;13.82;6.68;;;;;;;16.55;82.32;93505.16;5055317;28;20041;-78
2022/07/23 04:19:18;;;;;;;9.73;6.15;;;;;;;16.60;83.22;93507.81;5050257;28;20480;-78
2022/07/23 04:21:45;;;;;;;10.43;6.13;;;;;;;16.64;83.53;93513.31;5050404;28;20442;-78
2022/07/23 04:24:11;;;;;;;12.73;6.18;;;;;;;16.72;83.45;93519.91;5050645;28;20045;-77
2022/07/23 04:26:38;;;;;;;11.65;6.28;;;;;;;16.77;83.15;93517.38;5055843;28;20464;-78
2022/07/23 04:29:06;;;;;;;11.27;7.10;;;;;;;16.86;81.83;93512.53;5070039;28;20048;-78
2022/07/23 04:31:33;;;;;;;10.55;5.80;;;;;;;16.93;83.10;93513.13;5070742;28;20052;-78
2022/07/23 04:33:59;;;;;;;13.65;7.22;;;;;;;16.94;82.44;93518.09;5070288;28;20114;-81
2022/07/23 04:36:26;;;;;;;12.85;7.30;;;;;;;17.03;82.22;93508.09;5070511;28;20090;-79
2022/07/23 04:38:53;;;;;;;12.45;7.40;;;;;;;17.07;83.54;93514.38;5070692;28;20040;-80
2022/07/23 04:41:20;;;;;;;13.70;7.32;;;;;;;17.07;82.11;93505.81;5070417;28;20174;-81
2022/07/23 04:43:46;;;;;;;14.63;7.50;;;;;;;17.06;81.96;93488.66;5069924;28;20048;-80
2022/07/23 04:46:15;;;;;;;16.85;7.45;;;;;;;17.32;81.53;93518.28;5070239;28;20044;-80
2022/07/23 04:48:42;;;;;;;11.80;7.72;;;;;;;17.44;80.84;93518.16;5070368;28;20044;-79
2022/07/23 04:51:08;;;;;;;11.75;7.05;;;;;;;17.49;80.75;93517.41;5069889;28;20052;-79
2022/07/23 04:53:37;;;;;;;14.13;7.50;;;;;;;17.56;80.88;93522.41;5070280;28;20145;-79
2022/07/23 04:56:04;;;;;;;13.88;6.78;;;;;;;17.55;79.49;93511.22;5070154;28;20094;-78
2022/07/23 04:58:31;;;;;;;13.68;6.40;;;;;;;17.70;77.40;93521.00;5069875;28;20044;-78
2022/07/23 05:00:58;;;;;;;11.52;5.82;;;;;;;17.72;78.64;93512.94;5070105;28;20080;-79
2022/07/23 05:03:26;;;;;;;10.38;5.78;;;;;;;17.83;77.49;93519.78;5070221;28;20052;-78
2022/07/23 05:05:53;;;;;;;10.63;5.97;;;;;;;17.95;77.02;93524.06;5054728;28;20500;-79
2022/07/23 05:08:20;;;;;;;11.18;6.28;;;;;;;18.04;76.32;93522.56;5057495;28;20166;-79
2022/07/23 05:10:52;;;;;;;10.05;6.68;;;;;;;18.00;76.17;93505.88;5069526;28;20049;-79
2022/07/23 05:13:19;;;;;;;13.50;6.57;;;;;;;18.17;76.40;93518.78;5069873;28;20044;-79
2022/07/23 05:15:46;;;;;;;8.77;5.50;;;;;;;18.30;75.75;93526.16;5069634;28;20098;-78
2022/07/23 05:18:13;;;;;;;9.48;5.70;;;;;;;18.40;75.84;93522.84;5070096;28;20408;-78
2022/07/23 05:20:41;;;;;;;11.70;6.43;;;;;;;18.52;74.51;93527.06;5069579;28;20044;-79
2022/07/23 05:23:08;;;;;;;11.95;6.30;;;;;;;18.60;74.64;93529.19;5069329;28;20048;-78
2022/07/23 05:25:34;;;;;;;13.88;7.47;;;;;;;18.70;74.67;93533.66;5069721;28;20044;-78
2022/07/23 05:28:01;;;;;;;15.18;7.82;;;;;;;18.82;74.35;93528.28;5069328;28;20094;-79
2022/07/23 05:30:28;;;;;;;15.27;7.90;;;;;;;18.92;74.46;93528.31;5069391;28;20050;-79
2022/07/23 05:32:55;;;;;;;12.52;6.90;;;;;;;19.06;71.40;93527.88;5069674;28;20045;-79
2022/07/23 05:35:22;;;;;;;12.02;6.80;;;;;;;19.22;71.28;93529.50;5069502;28;20098;-79
2022/07/23 05:37:52;;;;;;;15.52;7.68;;;;;;;19.34;70.99;93529.28;5069535;28;20106;-79
2022/07/23 05:40:19;;;;;;;10.57;6.15;;;;;;;19.47;68.99;93528.00;5069456;28;20052;-79
2022/07/23 05:42:46;;;;;;;12.73;6.45;;;;;;;19.59;68.47;93522.53;5069362;28;20109;-79
2022/07/23 05:45:13;;;;;;;12.05;6.40;;;;;;;19.81;66.76;93529.34;5069528;28;20090;-79
2022/07/23 05:47:43;;;;;;;11.48;5.97;;;;;;;20.00;66.08;93527.06;5069162;28;20044;-79
2022/07/23 05:50:11;;;;;;;11.63;6.65;;;;;;;20.14;66.86;93523.94;5069391;28;20518;-78
2022/07/23 05:52:38;;;;;;;14.50;7.43;;;;;;;20.35;67.28;93523.91;5069184;28;20044;-78
2022/07/23 05:55:24;;;;;;;14.85;7.28;;;;;;;20.57;66.63;93526.22;5065869;28;20101;-79
2022/07/23 05:57:53;;;;;;;20.42;9.43;;;;;;;20.81;67.18;93520.41;5060077;28;20053;-80
2022/07/23 06:00:20;;;;;;;19.00;9.13;;;;;;;21.15;67.25;93524.25;5057474;28;20127;-79
2022/07/23 06:02:47;;;;;;;24.55;11.30;;;;;;;21.41;67.98;93522.28;5069331;28;20044;-78
2022/07/23 06:05:14;;;;;;;23.63;10.82;;;;;;;21.66;65.92;93512.72;5070416;28;20059;-78
2022/07/23 06:07:41;;;;;;;21.35;10.23;;;;;;;21.97;65.08;93507.31;5070012;28;20059;-78
2022/07/23 06:10:10;;;;;;;21.55;8.27;;;;;;;22.23;64.69;93508.94;5070145;28;20037;-78
2022/07/23 06:12:38;;;;;;;30.05;11.18;;;;;;;22.62;63.23;93515.94;5069747;28;20499;-78
2022/07/23 06:15:05;;;;;;;27.40;10.00;;;;;;;22.87;62.11;93516.69;5069685;28;20048;-79
2022/07/23 06:17:32;;;;;;;19.30;8.93;;;;;;;22.89;61.10;93501.50;5069363;28;20109;-79
2022/07/23 06:19:59;;;;;;;23.77;10.65;;;;;;;23.20;59.55;93502.97;5069206;28;20048;-79
2022/07/23 06:22:26;;;;;;;23.00;10.48;;;;;;;23.52;55.39;93513.84;5068863;28;20094;-79
2022/07/23 06:24:53;;;;;;;30.30;11.73;;;;;;;23.89;57.13;93507.03;5068935;28;20098;-79
2022/07/23 06:27:21;;;;;;;32.00;11.85;;;;;;;24.27;55.25;93504.34;5056076;28;20489;-79
2022/07/23 06:29:47;;;;;;;34.28;12.85;;;;;;;24.71;53.04;93504.09;5067237;28;20439;-79
2022/07/23 06:32:14;;;;;;;27.67;11.38;;;;;;;24.89;50.95;93504.31;5068946;28;20106;-79
2022/07/23 06:34:41;;;;;;;31.65;12.60;;;;;;;25.20;50.16;93506.34;5068438;28;20049;-79
2022/07/23 06:37:07;;;;;;;44.03;16.30;;;;;;;25.58;49.28;93498.22;5068798;28;20113;-79
2022/07/23 06:39:34;;;;;;;37.30;15.45;;;;;;;25.98;46.49;93505.47;5068979;28;20497;-80
2022/07/23 06:42:01;;;;;;;44.00;16.67;;;;;;;26.13;46.40;93503.53;5072444;28;20094;-81
2022/07/23 06:44:30;;;;;;;45.95;19.70;;;;;;;26.42;45.32;93500.47;5072221;28;20103;-81
2022/07/23 06:46:56;;;;;;;37.25;16.15;;;;;;;26.41;44.52;93493.66;5072524;28;20098;-80
2022/07/23 06:49:23;;;;;;;42.67;17.65;;;;;;;26.70;45.13;93496.09;5058446;28;20040;-78
2022/07/23 06:51:50;;;;;;;45.13;16.77;;;;;;;26.34;43.70;93489.91;5072247;28;20099;-81
2022/07/23 06:54:17;;;;;;;33.97;15.93;;;;;;;26.59;43.77;93490.31;5070580;28;20048;-82
2022/07/23 06:56:44;;;;;;;42.60;16.15;;;;;;;26.20;44.23;93498.63;5064351;28;20049;-82
2022/07/23 06:59:10;;;;;;;36.08;16.38;;;;;;;26.68;44.18;93484.03;5065084;28;20110;-82
2022/07/23 07:01:39;;;;;;;39.85;16.90;;;;;;;27.31;43.90;93496.28;5071904;28;20554;-81
2022/07/23 07:04:05;;;;;;;38.72;16.77;;;;;;;27.00;42.47;93501.66;5066834;28;20498;-81
2022/07/23 07:06:32;;;;;;;39.45;17.23;;;;;;;27.42;43.81;93493.34;5058418;28;20053;-81
2022/07/23 07:08:59;;;;;;;34.00;15.50;;;;;;;28.00;42.81;93491.34;5070437;28;20451;-81
2022/07/23 07:11:26;;;;;;;32.15;14.55;;;;;;;28.57;41.29;93493.25;5071855;28;20053;-81
2022/07/23 07:13:53;;;;;;;32.60;15.32;;;;;;;28.84;39.55;93488.63;5071670;28;20090;-81
2022/07/23 07:16:22;;;;;;;40.03;15.70;;;;;;;29.12;40.58;93488.97;5071616;28;20044;-82
2022/07/23 07:18:50;;;;;;;33.25;14.40;;;;;;;28.46;38.77;93483.00;5071227;28;20059;-80
2022/07/23 07:21:17;;;;;;;34.67;15.65;;;;;;;29.11;39.83;93491.94;5071369;28;20049;-80
2022/07/23 07:23:44;;;;;;;40.15;17.52;;;;;;;29.38;38.66;93484.63;5071252;28;20041;-80
2022/07/23 07:26:10;;;;;;;37.58;16.95;;;;;;;29.74;39.00;93483.25;5071296;28;20045;-81
2022/07/23 07:28:37;;;;;;;40.20;16.42;;;;;;;30.13;38.53;93475.91;5071369;28;20044;-79
2022/07/23 07:31:04;;;;;;;40.88;18.25;;;;;;;30.58;37.57;93478.09;5071442;28;20178;-79
2022/07/23 07:33:31;;;;;;;58.60;23.95;;;;;;;30.79;35.88;93480.69;5071713;28;20051;-81
2022/07/23 07:36:00;;;;;;;50.10;20.30;;;;;;;31.12;36.74;93484.28;5071077;28;20503;-81
2022/07/23 07:38:27;;;;;;;45.53;20.02;;;;;;;31.30;36.09;93460.97;5070985;28;20087;-83
2022/07/23 07:40:54;;;;;;;46.83;18.05;;;;;;;31.51;35.56;93476.72;5070988;28;20040;-82
2022/07/23 07:43:20;;;;;;;35.85;16.08;;;;;;;31.07;35.58;93456.13;5071135;28;20082;-81
2022/07/23 07:45:47;;;;;;;38.45;17.13;;;;;;;30.69;35.35;93473.13;5070863;28;20040;-82
2022/07/23 07:48:14;;;;;;;35.45;17.05;;;;;;;30.24;36.08;93464.91;5071101;28;20049;-82
2022/07/23 07:50:41;;;;;;;39.10;16.67;;;;;;;30.60;37.21;93460.78;5070643;28;20048;-82
2022/07/23 07:53:09;;;;;;;40.67;14.35;;;;;;;30.61;37.00;93464.19;5070253;28;20052;-82
2022/07/23 07:55:36;;;;;;;32.17;13.57;;;;;;;29.56;37.23;93459.59;5070440;28;20057;-82
2022/07/23 07:58:03;;;;;;;35.42;13.38;;;;;;;30.06;37.88;93461.63;5070924;28;20094;-82
2022/07/23 08:00:32;;;;;;;32.38;13.63;;;;;;;30.05;36.81;93468.81;5070975;28;20149;-82
2022/07/23 08:02:59;;;;;;;29.73;12.35;;;;;;;30.62;37.41;93465.72;5056573;28;20040;-83
2022/07/23 08:05:28;;;;;;;30.05;12.50;;;;;;;30.82;36.04;93474.69;5070855;28;20121;-81
2022/07/23 08:07:56;;;;;;;27.33;10.93;;;;;;;31.46;35.05;93467.13;5070543;28;20056;-82
2022/07/23 08:10:25;;;;;;;26.60;10.85;;;;;;;32.03;34.46;93460.28;5070674;28;20140;-81
2022/07/23 08:12:56;;;;;;;29.52;10.32;;;;;;;32.11;34.16;93464.66;5070495;28;20040;-82
2022/07/23 08:15:23;;;;;;;28.77;11.07;;;;;;;32.17;33.78;93458.00;5070479;28;20420;-82
2022/07/23 08:17:51;;;;;;;25.05;10.38;;;;;;;32.66;34.16;93458.81;5070010;28;20443;-83
2022/07/23 08:20:19;;;;;;;19.88;9.45;;;;;;;32.63;32.80;93449.63;5066679;28;20048;-82
2022/07/23 08:22:49;;;;;;;18.92;9.35;;;;;;;32.40;31.65;93452.88;5070174;28;20057;-81
2022/07/23 08:25:17;;;;;;;13.35;6.25;;;;;;;32.54;33.46;93451.72;5070073;28;20051;-82
2022/07/23 08:27:45;;;;;;;15.90;7.00;;;;;;;32.61;33.46;93454.53;5070149;28;20048;-82
2022/07/23 08:30:12;;;;;;;15.18;6.68;;;;;;;33.12;32.77;93455.69;5070330;28;20041;-82
2022/07/23 08:32:53;;;;;;;17.70;6.30;;;;;;;32.65;32.42;93458.06;5070224;28;20044;-82
2022/07/23 08:35:24;;;;;;;13.55;6.10;;;;;;;32.20;31.86;93454.66;5070033;28;20041;-82
2022/07/23 08:37:51;;;;;;;10.80;5.40;;;;;;;31.85;31.86;93453.41;5069868;28;20114;-82
2022/07/23 08:40:18;;;;;;;19.63;5.93;;;;;;;32.19;31.24;93453.13;5069665;28;20078;-81
2022/07/23 08:42:49;;;;;;;16.27;5.07;;;;;;;32.22;31.80;93459.63;5069987;28;20048;-81
2022/07/23 08:45:21;;;;;;;15.88;5.38;;;;;;;32.59;30.28;93442.69;5069889;28;20045;-81
2022/07/23 08:47:51;;;;;;;9.07;4.85;;;;;;;32.67;31.14;93455.03;5069746;28;20068;-81
2022/07/23 08:50:17;;;;;;;9.68;4.05;;;;;;;33.14;31.53;93436.72;5069923;28;20048;-81
2022/07/23 08:52:45;;;;;;;10.27;5.10;;;;;;;33.65;30.50;93449.16;5069695;28;20102;-80
2022/07/23 08:55:11;;;;;;;16.83;6.20;;;;;;;33.89;29.84;93446.53;5069818;28;20135;-81
2022/07/23 08:57:38;;;;;;;10.77;4.43;;;;;;;32.36;29.93;93419.34;5069309;28;20101;-81
2022/07/23 09:00:08;;;;;;;9.20;4.85;;;;;;;32.58;28.45;93449.13;5069476;28;20492;-80
2022/07/23 09:02:40;;;;;;;9.57;3.80;;;;;;;33.08;29.88;93446.09;5069146;28;20079;-80
2022/07/23 09:05:08;;;;;;;13.32;3.60;;;;;;;33.14;25.85;93450.75;5060548;28;20048;-80
2022/07/23 09:07:37;;;;;;;10.35;3.97;;;;;;;33.80;27.25;93449.44;5067219;28;20497;-81
2022/07/23 09:10:09;;;;;;;9.30;4.28;;;;;;;33.95;27.54;93439.78;5069296;28;20044;-80
2022/07/23 09:12:37;;;;;;;11.40;4.47;;;;;;;34.16;25.71;93449.31;5069410;28;20037;-81
2022/07/23 09:15:09;;;;;;;10.70;3.42;;;;;;;34.61;25.98;93449.72;5069463;28;20049;-80
2022/07/23 09:17:41;;;;;;;14.82;5.18;;;;;;;34.86;24.91;93446.63;5069320;28;20044;-81
2022/07/23 09:20:10;;;;;;;8.63;3.58;;;;;;;35.14;25.77;93445.53;5069005;28;20056;-82
2022/07/23 09:22:37;;;;;;;11.23;4.20;;;;;;;35.53;25.64;93445.25;5069312;28;20098;-82
2022/07/23 09:25:10;;;;;;;8.32;4.25;;;;;;;35.56;23.80;93452.53;5069376;28;20052;-81
2022/07/23 09:27:53;;;;;;;10.13;3.60;;;;;;;33.64;24.49;93422.88;5054672;28;20526;-80
2022/07/23 09:30:23;;;;;;;5.80;3.25;;;;;;;34.00;25.41;93442.16;5056888;28;20049;-81
2022/07/23 09:33:10;;;;;;;9.02;3.97;;;;;;;33.59;24.99;93432.69;5069460;28;20052;-80
2022/07/23 09:35:49;;;;;;;8.52;3.88;;;;;;;33.90;25.35;93437.41;5058165;28;20094;-80
2022/07/23 09:38:17;;;;;;;7.30;3.92;;;;;;;33.93;24.94;93437.47;5068786;28;20500;-82
2022/07/23 09:40:45;;;;;;;8.25;3.78;;;;;;;34.60;25.69;93430.25;5069232;28;20052;-82
2022/07/23 09:43:13;;;;;;;8.02;3.35;;;;;;;33.99;24.38;93441.41;5069177;28;20102;-82
2022/07/23 09:45:41;;;;;;;12.38;4.05;;;;;;;34.37;27.18;93420.38;5069013;28;20389;-81
2022/07/23 09:48:17;;;;;;;11.02;4.05;;;;;;;34.46;24.05;93430.78;5068958;28;20045;-82
2022/07/23 09:50:45;;;;;;;9.20;4.75;;;;;;;35.09;24.48;93430.56;5068846;28;20044;-82
2022/07/23 09:53:24;;;;;;;11.85;4.07;;;;;;;35.70;24.27;93411.88;5068647;28;20053;-82
2022/07/23 09:55:55;;;;;;;9.30;3.63;;;;;;;36.24;23.28;93416.97;5068762;28;20471;-81
2022/07/23 09:58:25;;;;;;;14.25;3.60;;;;;;;36.64;23.75;93422.69;5068898;28;20556;-82
2022/07/23 10:00:55;;;;;;;13.75;5.10;;;;;;;36.87;24.04;93418.22;5068645;28;20040;-82
2022/07/23 10:03:22;;;;;;;13.85;5.18;;;;;;;37.26;23.41;93422.28;5069014;28;20477;-79
2022/07/23 10:05:50;;;;;;;7.25;3.45;;;;;;;37.36;22.67;93418.88;5068605;28;20549;-79
2022/07/23 10:08:19;;;;;;;9.23;3.63;;;;;;;37.74;22.85;93415.19;5068683;28;20451;-80
2022/07/23 10:10:47;;;;;;;11.43;3.58;;;;;;;38.27;23.89;93413.00;5068496;28;20048;-79
2022/07/23 10:16:01;;;;;;;9.65;4.43;;;;;;;38.69;21.57;93398.03;5071921;28;20139;-79
2022/07/23 10:18:27;;;;;;;8.57;3.35;;;;;;;38.18;21.05;93391.94;5072851;28;20094;-79
2022/07/23 10:20:54;;;;;;;11.60;3.15;;;;;;;37.35;19.34;93393.25;5072700;28;20651;-80
2022/07/23 10:23:29;;;;;;;6.53;3.22;;;;;;;37.79;21.15;93401.41;5072725;28;20076;-79
2022/07/23 10:26:05;;;;;;;6.57;2.90;;;;;;;38.19;21.80;93398.81;5072574;28;20045;-78
2022/07/23 10:28:56;;;;;;;10.80;3.85;;;;;;;38.49;19.37;93408.41;5057928;28;20448;-79
2022/07/23 10:31:42;;;;;;;9.50;3.05;;;;;;;38.32;18.51;93401.91;5057666;28;20045;-79
2022/07/23 10:34:17;;;;;;;8.45;3.05;;;;;;;37.77;20.08;93393.00;5072468;28;20098;-80
2022/07/23 10:36:50;;;;;;;10.57;4.30;;;;;;;37.41;19.17;93390.97;5069583;28;20094;-79
2022/07/23 10:39:24;;;;;;;12.00;3.75;;;;;;;37.20;21.42;93384.38;5069468;28;20114;-79
2022/07/23 10:41:51;;;;;;;10.87;3.27;;;;;;;37.93;21.75;93384.59;5071439;28;20044;-78
2022/07/23 10:44:22;;;;;;;11.15;3.97;;;;;;;38.49;22.05;93393.06;5058487;28;20657;-79
2022/07/23 10:47:06;;;;;;;12.52;4.57;;;;;;;38.96;19.05;93378.81;5053324;28;20044;-79
2022/07/23 10:49:34;;;;;;;11.07;3.50;;;;;;;39.35;19.92;93377.19;5060237;28;20033;-78
2022/07/23 10:52:26;;;;;;;8.25;3.03;;;;;;;39.62;20.10;93370.53;5061912;28;20090;-78
2022/07/23 10:54:55;;;;;;;12.93;3.80;;;;;;;39.79;19.44;93372.34;5073359;28;20543;-79
2022/07/23 10:57:23;;;;;;;9.82;3.47;;;;;;;40.16;20.05;93364.06;5058937;28;20095;-79
2022/07/23 11:00:22;;;;;;;10.07;3.65;;;;;;;40.15;15.76;93365.97;5073101;28;20080;-79
2022/07/23 11:02:51;;;;;;;9.57;3.08;;;;;;;39.51;17.67;93362.56;5072570;28;20044;-79
2022/07/23 11:05:20;;;;;;;8.00;3.45;;;;;;;40.08;17.28;93363.34;5072183;28;20045;-79
2022/07/23 11:08:14;;;;;;;8.43;3.50;;;;;;;40.16;17.41;93353.31;5071864;28;20498;-79
2022/07/23 11:10:43;;;;;;;9.35;3.05;;;;;;;40.43;16.77;93360.78;5072143;28;20051;-79
2022/07/23 11:13:39;;;;;;;9.05;3.30;;;;;;;39.66;16.51;93350.53;5071538;28;20082;-79
2022/07/23 11:16:22;;;;;;;10.13;3.88;;;;;;;39.73;18.05;93338.19;5071337;28;20768;-79
2022/07/23 11:19:04;;;;;;;11.17;3.60;;;;;;;40.21;18.16;93339.44;5071612;28;20565;-79
2022/07/23 11:21:51;;;;;;;11.38;4.45;;;;;;;40.31;18.43;93340.50;5071426;28;20044;-78
2022/07/23 11:24:25;;;;;;;6.95;3.00;;;;;;;40.67;18.27;93340.16;5071764;28;20044;-79
2022/07/23 11:26:56;;;;;;;7.07;2.95;;;;;;;40.91;18.15;93342.25;5071001;28;20090;-78
2022/07/23 11:29:44;;;;;;;9.07;3.45;;;;;;;40.24;16.77;93337.88;5071474;28;20045;-79
2022/07/23 11:32:32;;;;;;;7.60;3.20;;;;;;;40.07;16.80;93322.22;5059452;28;20500;-80
2022/07/23 11:35:01;;;;;;;8.75;3.05;;;;;;;40.03;17.68;93326.88;5071522;28;20041;-80
2022/07/23 11:37:39;;;;;;;7.03;3.03;;;;;;;39.76;17.58;93337.44;5071305;28;20052;-80
2022/07/23 11:40:11;;;;;;;11.30;2.90;;;;;;;38.75;17.62;93321.38;5071204;28;20416;-80